Time;durP1;ratioP1;P1;durP2;ratioP2;P2;SDS_P1;SDS_P2;PMS_P1;PMS_P2;Temp;Humidity;BMP_temperature;BMP_pressure;BME280_temperature;BME280_humidity;BME280_pressure;Samples;Min_cycle;Max_cycle;Signal;HPM_P1;HPM_P2
2023/01/17 00:02:42;;;;;;;8.00;6.20;;;22.50;64.40;;;;;;221783;1269;24761;-58
2023/01/17 00:13:09;;;;;;;6.80;6.20;;;22.70;63.40;;;;;;221758;1257;22526;-57
2023/01/17 00:18:13;;;;;;;7.50;6.20;;;22.70;63.10;;;;;;221820;1257;23113;-58
2023/01/17 01:37:49;;;;;;;7.00;5.90;;;21.80;62.80;;;;;;221636;1271;22599;-58
2023/01/17 01:42:56;;;;;;;7.30;6.60;;;21.80;62.80;;;;;;221789;1270;23885;-59
2023/01/17 01:48:05;;;;;;;7.40;6.40;;;21.80;62.70;;;;;;221647;1267;22702;-58
2023/01/17 01:53:10;;;;;;;6.90;6.20;;;21.80;62.70;;;;;;221736;1261;22618;-58
2023/01/17 01:58:19;;;;;;;7.80;6.60;;;21.70;62.20;;;;;;221661;1260;22886;-56
2023/01/17 02:03:28;;;;;;;6.30;5.80;;;21.70;62.60;;;;;;221823;1260;23926;-58
2023/01/17 02:08:33;;;;;;;7.10;6.40;;;21.70;62.60;;;;;;221828;1267;226423;-59
2023/01/17 02:13:37;;;;;;;7.10;6.30;;;21.60;63.60;;;;;;221655;1267;23739;-58
2023/01/17 02:18:53;;;;;;;6.50;5.80;;;21.90;63.00;;;;;;221599;1264;22576;-57
2023/01/17 02:24:00;;;;;;;6.60;5.90;;;22.20;62.20;;;;;;221703;1258;22670;-58
2023/01/17 02:29:37;;;;;;;6.80;5.70;;;22.50;61.50;;;;;;221789;1270;26615;-58
2023/01/17 02:35:03;;;;;;;6.60;5.90;;;22.70;60.90;;;;;;221569;1264;23945;-58
2023/01/17 02:40:15;;;;;;;6.80;6.10;;;22.90;60.10;;;;;;221704;1254;22635;-58
2023/01/17 02:45:20;;;;;;;7.20;5.60;;;23.00;60.20;;;;;;221906;1250;24186;-59
2023/01/17 02:50:30;;;;;;;6.30;5.40;;;23.00;59.80;;;;;;221747;1257;22777;-59
2023/01/17 02:55:49;;;;;;;8.20;5.90;;;23.00;59.40;;;;;;221758;1252;22539;-58
2023/01/17 03:01:32;;;;;;;5.50;5.10;;;23.10;59.30;;;;;;221574;1271;22521;-58
2023/01/17 03:06:43;;;;;;;6.40;5.30;;;23.10;59.10;;;;;;221598;1263;22535;-58
2023/01/17 03:11:47;;;;;;;6.80;5.40;;;23.10;58.80;;;;;;221707;1257;24079;-58
2023/01/17 03:16:52;;;;;;;6.70;5.40;;;23.10;58.80;;;;;;221607;1270;22551;-58
2023/01/17 03:21:56;;;;;;;5.80;5.10;;;23.10;58.70;;;;;;221672;1267;22643;-58
2023/01/17 03:27:00;;;;;;;5.40;4.90;;;23.10;58.20;;;;;;221823;1267;25363;-59
2023/01/17 03:32:04;;;;;;;5.90;5.40;;;23.20;58.50;;;;;;221523;1267;22622;-56
2023/01/17 03:37:08;;;;;;;5.10;4.70;;;23.20;58.30;;;;;;221705;1260;22527;-58
2023/01/17 03:42:12;;;;;;;4.90;4.40;;;23.30;58.60;;;;;;221755;1248;23892;-59
2023/01/17 03:47:16;;;;;;;6.90;5.00;;;23.30;58.10;;;;;;221818;1266;24084;-59
2023/01/17 03:52:20;;;;;;;4.70;4.30;;;23.30;58.00;;;;;;221564;1270;22667;-59
2023/01/17 03:57:24;;;;;;;4.80;4.20;;;23.30;57.80;;;;;;221579;1267;22639;-59
2023/01/17 04:02:28;;;;;;;5.70;4.60;;;23.30;57.80;;;;;;221971;1264;22558;-59
2023/01/17 04:07:32;;;;;;;4.70;4.30;;;23.40;57.70;;;;;;222460;1257;25465;-58
2023/01/17 04:12:37;;;;;;;4.70;4.30;;;23.40;57.40;;;;;;221744;1258;22731;-57
2023/01/17 04:17:40;;;;;;;4.80;4.30;;;23.40;57.30;;;;;;221615;1260;24205;-58
2023/01/17 04:22:44;;;;;;;4.80;4.40;;;23.30;57.40;;;;;;221689;1267;23876;-58
2023/01/17 04:27:48;;;;;;;4.60;4.10;;;23.20;57.50;;;;;;221738;1264;25353;-57
2023/01/17 04:32:53;;;;;;;3.90;3.60;;;23.10;57.70;;;;;;221668;1267;23001;-59
2023/01/17 04:37:57;;;;;;;4.50;4.10;;;23.10;58.00;;;;;;221803;1270;22763;-59
2023/01/17 04:43:01;;;;;;;4.40;4.10;;;22.90;58.50;;;;;;221561;1250;22620;-58
2023/01/17 04:48:06;;;;;;;5.50;4.50;;;22.80;58.50;;;;;;222151;1263;25350;-57
2023/01/17 04:53:10;;;;;;;4.30;3.80;;;22.70;58.60;;;;;;221928;1257;22820;-57
2023/01/17 04:58:14;;;;;;;4.00;3.70;;;22.60;58.70;;;;;;221579;1264;22529;-58
2023/01/17 05:03:19;;;;;;;4.70;4.30;;;22.50;59.00;;;;;;221653;1251;24034;-57
2023/01/17 05:08:23;;;;;;;4.20;3.80;;;22.50;59.00;;;;;;221762;1264;22649;-57
2023/01/17 05:13:27;;;;;;;4.30;3.70;;;22.40;59.00;;;;;;221956;1253;23902;-58
2023/01/17 05:18:31;;;;;;;5.20;3.70;;;22.30;59.00;;;;;;221963;1254;22526;-58
2023/01/17 05:23:35;;;;;;;4.20;3.80;;;22.30;59.00;;;;;;221941;1267;23915;-59
2023/01/17 05:28:39;;;;;;;4.20;3.70;;;22.20;59.10;;;;;;221646;1263;22541;-56
2023/01/17 05:33:43;;;;;;;3.70;3.40;;;22.20;59.00;;;;;;221873;1263;24261;-58
2023/01/17 05:38:47;;;;;;;3.90;3.60;;;22.10;59.10;;;;;;221825;1264;22941;-59
2023/01/17 05:43:51;;;;;;;4.10;3.80;;;22.10;59.30;;;;;;221958;1254;22627;-57
2023/01/17 05:48:55;;;;;;;3.60;3.30;;;22.10;59.00;;;;;;221984;1260;26497;-58
2023/01/17 05:53:59;;;;;;;3.50;3.30;;;22.00;59.00;;;;;;221757;1270;23827;-58
2023/01/17 05:59:03;;;;;;;4.20;3.80;;;21.90;58.90;;;;;;221792;1259;25414;-57
2023/01/17 06:04:07;;;;;;;3.80;3.50;;;21.90;59.00;;;;;;221722;1248;22587;-58
2023/01/17 06:09:11;;;;;;;3.50;3.20;;;21.80;58.80;;;;;;221780;1267;22522;-59
2023/01/17 06:14:15;;;;;;;3.70;3.40;;;21.80;59.10;;;;;;222052;1270;22563;-58
2023/01/17 06:19:19;;;;;;;4.60;3.50;;;21.80;59.40;;;;;;221672;1259;22653;-58
2023/01/17 06:24:23;;;;;;;3.80;3.30;;;22.10;58.90;;;;;;221885;1250;22542;-56
2023/01/17 06:29:27;;;;;;;3.90;3.20;;;22.50;58.70;;;;;;221807;1257;25426;-58
2023/01/17 06:34:31;;;;;;;4.70;2.70;;;22.80;58.20;;;;;;221933;1264;23881;-57
2023/01/17 06:39:36;;;;;;;3.10;2.80;;;22.90;57.70;;;;;;221864;1253;24237;-59
2023/01/17 06:44:39;;;;;;;2.90;2.70;;;23.00;57.30;;;;;;221924;1266;23601;-59
2023/01/17 06:49:44;;;;;;;3.10;2.80;;;23.10;56.90;;;;;;221841;1263;22617;-62
2023/01/17 06:54:48;;;;;;;3.00;2.80;;;23.10;56.70;;;;;;221706;1267;22552;-55
2023/01/17 06:59:52;;;;;;;3.00;2.70;;;23.00;56.70;;;;;;221759;1264;22550;-53
2023/01/17 07:04:56;;;;;;;14.10;2.90;;;23.00;57.00;;;;;;221805;1264;22530;-53
2023/01/17 07:10:02;;;;;;;5.50;2.90;;;23.10;57.00;;;;;;221823;1270;23929;-53
2023/01/17 07:15:07;;;;;;;3.10;2.80;;;23.20;57.00;;;;;;221726;1269;22699;-54
2023/01/17 07:20:12;;;;;;;3.70;2.90;;;23.30;56.70;;;;;;221698;1267;22542;-53
2023/01/17 07:25:16;;;;;;;7.20;3.10;;;23.30;57.40;;;;;;221712;1266;22551;-55
2023/01/17 07:30:20;;;;;;;3.10;2.80;;;23.20;57.40;;;;;;221788;1264;22658;-54
2023/01/17 07:35:27;;;;;;;4.00;3.30;;;23.20;57.50;;;;;;221901;1257;22551;-54
2023/01/17 07:40:31;;;;;;;3.60;2.90;;;23.10;57.60;;;;;;221574;1256;22611;-53
2023/01/17 07:45:49;;;;;;;7.10;2.80;;;23.00;57.80;;;;;;221624;1248;22640;-54
2023/01/17 07:50:57;;;;;;;7.60;3.10;;;22.90;58.10;;;;;;221667;1271;24290;-55
2023/01/17 07:56:04;;;;;;;7.80;2.50;;;23.10;57.80;;;;;;221716;1263;22987;-54
2023/01/17 08:01:11;;;;;;;6.20;2.70;;;23.10;57.70;;;;;;222176;1263;25551;-54
2023/01/17 08:06:21;;;;;;;8.50;3.30;;;23.00;58.20;;;;;;221578;1265;22783;-54
2023/01/17 08:11:25;;;;;;;5.70;2.70;;;22.90;58.10;;;;;;221850;1264;25092;-54
2023/01/17 08:16:29;;;;;;;4.00;2.40;;;22.90;58.10;;;;;;221832;1263;22547;-55
2023/01/17 08:21:33;;;;;;;10.10;2.40;;;22.90;58.50;;;;;;221854;1263;25232;-54
2023/01/17 08:26:37;;;;;;;5.80;2.30;;;22.70;58.70;;;;;;221795;1263;22658;-53
2023/01/17 08:31:41;;;;;;;9.70;2.40;;;22.50;58.50;;;;;;229798;1263;22286;-53
2023/01/17 08:36:46;;;;;;;6.60;2.80;;;22.50;58.30;;;;;;227918;1270;22553;-53
2023/01/17 08:41:50;;;;;;;3.60;2.80;;;22.60;57.10;;;;;;220677;1271;22656;-53
2023/01/17 08:46:54;;;;;;;9.20;2.70;;;22.50;57.80;;;;;;221416;1275;24965;-53
2023/01/17 08:51:58;;;;;;;5.60;2.50;;;22.60;57.60;;;;;;221002;1263;23578;-54
2023/01/17 08:57:03;;;;;;;8.60;2.10;;;22.50;58.10;;;;;;221665;1263;22743;-52
2023/01/17 09:02:15;;;;;;;7.60;2.30;;;22.50;58.10;;;;;;222180;1248;24197;-55
2023/01/17 09:07:19;;;;;;;4.80;2.40;;;22.40;57.90;;;;;;222003;1256;26640;-55
2023/01/17 09:12:23;;;;;;;9.10;2.40;;;22.30;58.10;;;;;;221858;1262;24771;-54
2023/01/17 09:17:28;;;;;;;4.70;2.40;;;22.10;58.60;;;;;;222620;1262;23904;-53
2023/01/17 09:22:32;;;;;;;3.40;2.60;;;22.00;58.60;;;;;;221864;1263;23262;-56
2023/01/17 09:27:36;;;;;;;2.60;2.20;;;22.00;58.80;;;;;;222075;1264;22616;-53
2023/01/17 09:32:40;;;;;;;5.10;2.10;;;21.90;58.70;;;;;;221652;1267;22539;-53
2023/01/17 09:37:47;;;;;;;2.40;2.20;;;21.90;59.10;;;;;;221997;1262;22521;-53
2023/01/17 09:43:00;;;;;;;3.20;2.30;;;21.80;58.70;;;;;;221871;1253;24251;-54
2023/01/17 09:48:11;;;;;;;3.50;2.00;;;21.80;58.70;;;;;;221893;1259;24238;-50
2023/01/17 09:53:19;;;;;;;3.00;2.30;;;21.70;58.60;;;;;;221856;1262;25065;-50
2023/01/17 09:58:41;;;;;;;3.60;2.40;;;21.70;58.60;;;;;;222130;1263;22513;-54
2023/01/17 10:04:00;;;;;;;3.00;1.80;;;21.70;58.60;;;;;;221856;1266;23238;-57
2023/01/17 10:09:14;;;;;;;2.80;2.20;;;21.70;58.50;;;;;;221984;1266;22573;-55
2023/01/17 10:14:33;;;;;;;2.80;2.20;;;21.60;58.40;;;;;;221837;1266;22618;-56
2023/01/17 10:19:58;;;;;;;3.50;1.90;;;21.60;58.30;;;;;;221785;1248;24222;-52
2023/01/17 10:25:45;;;;;;;4.30;2.00;;;21.80;57.80;;;;;;221720;1263;22547;-52
2023/01/17 10:30:55;;;;;;;2.40;2.10;;;22.20;57.10;;;;;;222020;1262;22558;-58
2023/01/17 10:36:06;;;;;;;2.60;1.80;;;22.60;56.30;;;;;;221812;1253;22613;-50
2023/01/17 10:41:45;;;;;;;1.90;1.80;;;22.80;55.80;;;;;;221738;1260;22531;-52
2023/01/17 10:47:10;;;;;;;1.70;1.60;;;22.80;55.90;;;;;;220778;1274;22620;-54
2023/01/17 10:53:02;;;;;;;3.50;2.00;;;22.90;56.10;;;;;;220625;1271;24849;-52
2023/01/17 10:58:13;;;;;;;1.80;1.70;;;23.10;55.40;;;;;;220136;1277;25917;-48
2023/01/17 11:03:19;;;;;;;2.40;1.60;;;23.30;55.10;;;;;;220908;1275;22539;-52
2023/01/17 11:08:24;;;;;;;2.30;2.10;;;23.40;55.40;;;;;;220736;1271;22538;-55
2023/01/17 11:13:33;;;;;;;2.70;2.00;;;23.50;54.70;;;;;;220885;1271;23583;-57
2023/01/17 11:18:38;;;;;;;3.30;1.60;;;23.60;54.30;;;;;;220748;1271;24380;-58
2023/01/17 11:23:48;;;;;;;2.50;1.60;;;23.80;54.00;;;;;;226974;1266;24206;-58
2023/01/17 11:29:13;;;;;;;1.40;1.30;;;23.90;53.70;;;;;;221874;1263;22653;-57
2023/01/17 11:34:25;;;;;;;2.30;1.80;;;23.80;53.70;;;;;;227906;1262;22779;-57
2023/01/17 11:39:29;;;;;;;3.00;1.80;;;23.70;53.60;;;;;;226569;1260;22538;-58
2023/01/17 11:44:35;;;;;;;2.30;1.50;;;23.70;53.40;;;;;;222125;1263;22980;-57
2023/01/17 11:49:40;;;;;;;3.70;1.40;;;23.60;54.10;;;;;;221804;1264;22573;-53
2023/01/17 11:54:46;;;;;;;3.80;1.80;;;23.50;54.50;;;;;;221669;1263;22631;-50
2023/01/17 12:00:13;;;;;;;1.80;1.50;;;23.50;54.20;;;;;;222231;1247;24049;-51
2023/01/17 12:05:55;;;;;;;4.90;2.00;;;23.50;54.30;;;;;;222041;1266;22532;-47
2023/01/17 12:11:04;;;;;;;;;;;23.40;54.90;;;;;;221006;1269;22615;-51
2023/01/17 12:16:27;;;;;;;4.20;1.90;;;23.40;54.60;;;;;;221137;1269;23571;-53
2023/01/17 12:21:34;;;;;;;3.10;1.60;;;23.50;54.40;;;;;;221090;1263;25480;-52
2023/01/17 12:26:42;;;;;;;2.10;1.60;;;23.50;54.30;;;;;;221191;1271;24206;-54
2023/01/17 12:32:04;;;;;;;1.90;1.40;;;23.60;54.10;;;;;;221825;1257;23904;-51
2023/01/17 12:37:28;;;;;;;3.30;1.80;;;23.60;54.10;;;;;;221700;1266;24238;-54
2023/01/17 12:42:40;;;;;;;1.60;1.50;;;23.50;53.90;;;;;;221722;1270;22549;-55
2023/01/17 12:47:48;;;;;;;3.80;1.80;;;23.50;53.80;;;;;;221942;1256;22607;-56
2023/01/17 12:52:54;;;;;;;2.00;1.50;;;23.40;54.40;;;;;;221840;1263;22637;-54
2023/01/17 12:58:01;;;;;;;2.60;1.40;;;23.50;54.00;;;;;;221757;1266;22587;-54
2023/01/17 13:03:28;;;;;;;1.70;1.40;;;23.50;53.90;;;;;;221706;1266;22663;-52
2023/01/17 13:08:40;;;;;;;6.40;1.90;;;23.60;53.80;;;;;;221810;1263;25290;-55
2023/01/17 13:13:44;;;;;;;1.80;1.60;;;23.40;54.20;;;;;;221828;1266;22539;-52
2023/01/17 13:18:50;;;;;;;2.70;1.30;;;23.40;54.30;;;;;;221893;1255;25041;-56
2023/01/17 13:24:06;;;;;;;4.30;1.40;;;23.40;53.90;;;;;;222762;1263;24745;-57
2023/01/17 13:29:25;;;;;;;1.70;1.60;;;23.50;53.90;;;;;;221897;1263;22538;-55
2023/01/17 13:34:43;;;;;;;1.50;1.40;;;23.40;54.00;;;;;;222036;1263;23494;-52
2023/01/17 13:39:55;;;;;;;1.60;1.20;;;23.30;54.10;;;;;;221910;1259;24186;-53
2023/01/17 13:45:06;;;;;;;1.50;1.40;;;23.20;54.20;;;;;;221811;1263;22531;-54
2023/01/17 13:50:35;;;;;;;2.00;1.10;;;23.10;54.10;;;;;;221775;1270;22671;-50
2023/01/17 13:55:45;;;;;;;1.30;1.20;;;23.00;54.10;;;;;;221939;1267;22628;-54
2023/01/17 14:00:49;;;;;;;1.40;1.30;;;23.00;54.20;;;;;;221947;1253;24238;-53
2023/01/17 14:05:56;;;;;;;2.00;1.40;;;22.90;54.40;;;;;;221903;1260;22794;-57
2023/01/17 14:11:06;;;;;;;1.70;1.20;;;22.90;54.50;;;;;;221696;1263;204721;-55
2023/01/17 14:16:21;;;;;;;1.50;1.40;;;22.80;54.50;;;;;;221791;1263;24218;-54
2023/01/17 14:21:31;;;;;;;2.50;1.50;;;22.70;54.60;;;;;;222087;1257;22540;-54
2023/01/17 14:26:42;;;;;;;2.10;1.30;;;22.70;54.80;;;;;;221904;1271;22536;-54
2023/01/17 14:31:47;;;;;;;1.50;1.30;;;22.60;55.30;;;;;;222013;1248;24366;-51
2023/01/17 14:37:03;;;;;;;1.60;1.10;;;22.50;55.00;;;;;;221995;1263;22648;-49
2023/01/17 14:42:12;;;;;;;1.40;1.30;;;22.40;55.00;;;;;;222125;1253;24202;-52
2023/01/17 14:47:16;;;;;;;6.80;2.60;;;22.40;54.90;;;;;;221787;1263;22642;-51
2023/01/17 14:52:22;;;;;;;2.80;1.90;;;22.30;54.90;;;;;;221834;1263;22533;-51
2023/01/17 14:57:28;;;;;;;3.80;1.70;;;22.30;54.40;;;;;;221814;1253;22660;-49
2023/01/17 15:02:32;;;;;;;1.60;1.50;;;22.30;54.30;;;;;;221603;1269;22625;-50
2023/01/17 15:07:37;;;;;;;3.70;2.50;;;22.20;54.30;;;;;;221805;1263;25445;-52
2023/01/17 15:12:45;;;;;;;1.60;1.50;;;22.20;54.60;;;;;;222106;1267;24036;-51
2023/01/17 15:17:52;;;;;;;1.80;1.40;;;22.10;54.80;;;;;;221948;1260;25354;-53
2023/01/17 15:22:56;;;;;;;2.50;1.60;;;22.10;54.90;;;;;;221047;1255;24408;-53
2023/01/17 15:28:03;;;;;;;2.70;1.70;;;22.00;54.80;;;;;;220974;1270;22948;-48
2023/01/17 15:33:15;;;;;;;2.20;1.70;;;22.00;54.90;;;;;;221075;1253;22550;-50
2023/01/17 15:38:19;;;;;;;4.10;1.70;;;21.90;54.90;;;;;;221234;1265;22532;-56
2023/01/17 15:43:34;;;;;;;1.90;1.40;;;21.90;54.90;;;;;;221992;1257;22532;-56
2023/01/17 15:48:43;;;;;;;2.50;1.70;;;21.90;54.90;;;;;;223508;1256;23384;-56
2023/01/17 15:53:47;;;;;;;1.90;1.50;;;21.90;54.70;;;;;;221965;1269;25353;-55
2023/01/17 15:58:51;;;;;;;2.20;1.60;;;21.90;54.70;;;;;;221830;1263;22564;-55
2023/01/17 16:03:55;;;;;;;2.90;1.70;;;21.80;54.70;;;;;;221882;1259;24076;-55
2023/01/17 16:08:59;;;;;;;2.40;1.70;;;21.80;54.70;;;;;;221707;1268;22547;-56
2023/01/17 16:14:06;;;;;;;3.70;1.90;;;21.80;55.10;;;;;;221902;1266;22527;-56
2023/01/17 16:19:10;;;;;;;1.60;1.50;;;21.70;54.80;;;;;;222044;1259;22536;-55
2023/01/17 16:24:15;;;;;;;2.90;1.50;;;21.60;54.80;;;;;;222092;1256;25429;-55
2023/01/17 16:29:19;;;;;;;3.00;1.80;;;21.50;54.50;;;;;;221755;1267;25358;-56
2023/01/17 16:34:24;;;;;;;3.00;2.00;;;21.50;54.50;;;;;;221910;1262;22663;-58
2023/01/17 16:39:29;;;;;;;3.70;1.70;;;21.40;54.40;;;;;;221846;1263;22656;-56
2023/01/17 16:44:36;;;;;;;2.30;1.80;;;21.50;54.00;;;;;;222236;1264;22539;-58
2023/01/17 16:49:40;;;;;;;3.40;1.80;;;21.80;53.00;;;;;;221962;1266;23082;-58
2023/01/17 16:54:44;;;;;;;2.60;2.10;;;22.10;52.50;;;;;;222210;1269;22540;-57
2023/01/17 16:59:48;;;;;;;2.40;2.00;;;22.30;51.70;;;;;;222125;1246;22539;-54
2023/01/17 17:04:53;;;;;;;8.70;2.00;;;22.30;51.40;;;;;;221764;1257;22536;-55
2023/01/17 17:09:57;;;;;;;2.60;2.20;;;22.30;51.60;;;;;;222048;1263;22608;-54
2023/01/17 17:15:02;;;;;;;2.80;2.10;;;22.30;51.20;;;;;;221916;1269;22544;-54
2023/01/17 17:20:13;;;;;;;3.60;2.30;;;22.40;51.20;;;;;;221739;1263;26223;-56
2023/01/17 17:25:17;;;;;;;3.40;2.60;;;22.60;50.30;;;;;;221854;1269;22478;-53
2023/01/17 17:30:22;;;;;;;2.70;2.50;;;22.60;50.00;;;;;;222024;1259;22534;-54
2023/01/17 17:35:26;;;;;;;3.60;2.90;;;22.70;50.20;;;;;;221742;1266;22527;-55
2023/01/17 17:40:34;;;;;;;2.70;2.40;;;22.70;49.70;;;;;;221639;1270;25303;-55
2023/01/17 17:45:40;;;;;;;4.00;3.10;;;22.80;49.60;;;;;;221663;1266;26626;-53
2023/01/17 17:50:55;;;;;;;4.40;3.20;;;22.80;49.30;;;;;;222096;1267;22538;-55
2023/01/17 17:56:04;;;;;;;4.70;3.50;;;22.80;49.40;;;;;;222000;1253;24227;-55
2023/01/17 18:01:08;;;;;;;4.40;3.50;;;22.90;49.00;;;;;;221900;1263;22772;-56
2023/01/17 18:06:16;;;;;;;4.90;4.30;;;23.00;48.90;;;;;;221685;1263;24311;-55
2023/01/17 18:11:25;;;;;;;5.10;4.20;;;23.10;48.60;;;;;;221982;1268;26499;-59
2023/01/17 18:16:35;;;;;;;6.90;5.00;;;23.10;48.60;;;;;;221706;1269;22514;-57
2023/01/17 18:21:40;;;;;;;6.90;4.90;;;23.00;48.40;;;;;;222526;1264;24448;-58
2023/01/17 18:26:49;;;;;;;6.20;5.40;;;23.00;48.80;;;;;;221796;1263;22582;-59
2023/01/17 18:31:55;;;;;;;7.10;6.10;;;23.10;48.60;;;;;;221815;1269;25470;-56
2023/01/17 18:37:01;;;;;;;8.00;7.00;;;23.20;48.50;;;;;;222067;1253;26494;-57
2023/01/17 18:42:06;;;;;;;11.70;8.90;;;23.10;48.70;;;;;;221745;1264;26029;-57
2023/01/17 18:47:13;;;;;;;11.10;9.90;;;23.10;48.60;;;;;;222206;1263;23928;-58
2023/01/17 18:52:19;;;;;;;12.10;10.40;;;23.20;48.20;;;;;;221816;1269;22530;-57
2023/01/17 18:57:26;;;;;;;18.30;10.70;;;23.20;48.70;;;;;;221717;1264;25022;-53
2023/01/17 19:02:31;;;;;;;15.20;12.60;;;23.30;48.50;;;;;;221688;1263;22562;-55
2023/01/17 19:07:37;;;;;;;17.40;12.90;;;23.20;49.10;;;;;;221823;1268;22652;-55
2023/01/17 19:12:44;;;;;;;19.30;13.50;;;23.10;49.70;;;;;;221846;1260;25307;-55
2023/01/17 19:17:49;;;;;;;19.80;15.10;;;23.20;50.80;;;;;;221698;1269;22540;-55
2023/01/17 19:22:55;;;;;;;30.20;16.80;;;23.10;50.60;;;;;;221624;1257;22548;-55
2023/01/17 19:28:01;;;;;;;18.60;16.30;;;23.10;51.10;;;;;;221753;1264;24212;-51
2023/01/17 19:33:12;;;;;;;21.60;17.20;;;23.00;51.10;;;;;;221792;1257;24233;-53
2023/01/17 19:38:17;;;;;;;23.40;18.70;;;23.00;51.30;;;;;;221655;1260;22534;-56
2023/01/17 19:43:28;;;;;;;22.90;18.10;;;22.90;51.60;;;;;;221612;1261;22731;-57
2023/01/17 19:48:33;;;;;;;23.80;17.80;;;22.90;51.90;;;;;;221794;1269;25309;-57
2023/01/17 19:53:40;;;;;;;21.30;17.50;;;22.80;51.60;;;;;;221677;1269;25460;-57
2023/01/17 19:58:47;;;;;;;23.10;18.10;;;22.70;51.60;;;;;;222243;1266;22531;-57
2023/01/17 20:03:53;;;;;;;24.60;17.60;;;22.70;51.80;;;;;;221688;1270;22537;-59
2023/01/17 20:09:05;;;;;;;23.80;17.90;;;22.80;53.30;;;;;;221613;1269;24334;-50
2023/01/17 20:14:15;;;;;;;21.40;17.80;;;22.60;52.50;;;;;;221698;1259;24234;-52
2023/01/17 20:19:20;;;;;;;23.40;17.70;;;22.40;52.90;;;;;;221599;1268;23413;-51
2023/01/17 20:24:25;;;;;;;23.50;17.60;;;22.30;53.20;;;;;;221539;1270;24210;-53
2023/01/17 20:29:31;;;;;;;21.70;17.10;;;22.20;53.40;;;;;;221461;1261;23914;-56
2023/01/17 20:34:36;;;;;;;19.80;17.60;;;22.10;53.50;;;;;;221674;1265;25506;-49
2023/01/17 20:39:44;;;;;;;21.90;18.40;;;22.10;53.60;;;;;;221593;1271;25045;-52
2023/01/17 20:44:49;;;;;;;21.90;16.60;;;22.00;53.60;;;;;;221531;1271;25503;-50
2023/01/17 20:49:54;;;;;;;24.90;18.60;;;22.00;53.80;;;;;;221482;1266;23914;-51
2023/01/17 20:55:00;;;;;;;24.50;17.70;;;22.00;53.90;;;;;;221569;1264;24381;-56
2023/01/17 21:00:07;;;;;;;26.10;17.60;;;21.90;54.40;;;;;;221669;1270;26613;-58
2023/01/17 21:05:12;;;;;;;26.50;17.60;;;21.90;54.70;;;;;;221456;1270;22700;-55
2023/01/17 21:10:52;;;;;;;24.90;17.90;;;21.90;55.40;;;;;;221429;1270;26531;-56
2023/01/17 21:15:57;;;;;;;24.60;17.90;;;21.90;54.80;;;;;;221713;1264;22630;-55
2023/01/17 21:21:09;;;;;;;23.90;17.00;;;22.00;54.70;;;;;;221800;1258;23866;-56
2023/01/17 21:26:15;;;;;;;21.90;17.80;;;21.90;54.70;;;;;;221659;1270;22688;-57
2023/01/17 21:31:26;;;;;;;25.50;17.70;;;21.70;54.80;;;;;;221550;1267;24842;-54
2023/01/17 21:36:39;;;;;;;30.20;18.70;;;21.70;55.10;;;;;;221871;1264;24482;-56
2023/01/17 21:41:46;;;;;;;29.00;19.90;;;21.60;55.00;;;;;;221794;1263;22541;-56
2023/01/17 21:46:51;;;;;;;28.40;19.20;;;21.60;55.50;;;;;;221792;1264;22655;-56
2023/01/17 22:02:26;;;;;;;30.40;19.20;;;21.50;55.30;;;;;;221829;1267;22711;-53
2023/01/17 22:07:31;;;;;;;29.50;19.20;;;21.70;57.10;;;;;;221769;1263;24169;-56
2023/01/17 22:12:57;;;;;;;30.00;19.50;;;21.80;57.60;;;;;;221747;1254;24238;-57
2023/01/17 22:18:11;;;;;;;30.80;19.20;;;22.10;56.90;;;;;;221771;1267;22632;-57
2023/01/17 22:23:15;;;;;;;27.90;17.90;;;22.50;57.80;;;;;;221599;1251;22567;-53
2023/01/17 22:28:20;;;;;;;26.60;18.70;;;22.80;56.90;;;;;;221752;1255;25708;-53
2023/01/17 22:33:24;;;;;;;26.00;17.80;;;22.90;56.70;;;;;;221832;1267;25442;-53
2023/01/17 22:38:29;;;;;;;26.80;18.60;;;23.10;57.20;;;;;;221833;1250;27748;-52
2023/01/17 22:43:36;;;;;;;26.40;18.30;;;23.20;56.10;;;;;;221911;1264;25473;-52
2023/01/17 22:48:41;;;;;;;26.60;18.00;;;23.30;56.10;;;;;;221847;1257;24228;-52
2023/01/17 22:53:48;;;;;;;29.40;18.90;;;23.30;55.40;;;;;;221656;1267;26229;-55
2023/01/17 22:58:53;;;;;;;24.30;17.70;;;23.20;56.30;;;;;;221706;1249;24216;-53
2023/01/17 23:03:59;;;;;;;28.10;19.10;;;23.10;56.30;;;;;;221694;1267;25633;-54
2023/01/17 23:09:09;;;;;;;28.80;18.80;;;23.10;57.40;;;;;;221766;1270;25374;-51
2023/01/17 23:14:21;;;;;;;28.80;18.80;;;23.10;57.70;;;;;;221820;1266;23620;-53
2023/01/17 23:19:27;;;;;;;;;;;22.90;57.30;;;;;;221993;1254;25591;-53
2023/01/17 23:24:31;;;;;;;24.10;17.40;;;22.70;57.50;;;;;;221709;1270;22595;-52
2023/01/17 23:29:36;;;;;;;27.10;17.00;;;22.60;57.30;;;;;;221835;1249;24215;-53
2023/01/17 23:34:40;;;;;;;23.70;17.40;;;22.50;57.30;;;;;;221999;1248;23889;-52
2023/01/17 23:39:44;;;;;;;25.10;17.30;;;22.40;57.20;;;;;;221894;1264;25450;-53
2023/01/17 23:44:48;;;;;;;23.70;17.40;;;22.30;57.20;;;;;;221886;1264;23915;-51
2023/01/17 23:49:52;;;;;;;22.20;16.50;;;22.30;57.40;;;;;;221690;1267;22551;-53
2023/01/17 23:54:56;;;;;;;23.00;16.20;;;22.20;57.10;;;;;;221907;1264;22646;-52
